Time;durP1;ratioP1;P1;durP2;ratioP2;P2;SDS_P1;SDS_P2;PMS_P1;PMS_P2;Temp;Humidity;BMP_temperature;BMP_pressure;BME280_temperature;BME280_humidity;BME280_pressure;Samples;Min_cycle;Max_cycle;Signal;HPM_P1;HPM_P2
2024/01/19 00:00:34;;;;;;;5.00;4.80;;;;;;;;;;4991578;28;20038;-82
2024/01/19 00:03:00;;;;;;;4.38;4.18;;;;;;;;;;4977551;28;20053;-83
2024/01/19 00:05:25;;;;;;;5.07;4.88;;;;;;;;;;4944555;28;20045;-82
2024/01/19 00:07:51;;;;;;;4.90;4.70;;;;;;;;;;4964035;28;20042;-82
2024/01/19 00:10:16;;;;;;;4.97;4.78;;;;;;;;;;4979255;28;20042;-81
2024/01/19 00:12:42;;;;;;;5.03;4.82;;;;;;;;;;5009068;28;20621;-82
2024/01/19 00:15:09;;;;;;;5.00;4.80;;;;;;;;;;4961422;28;20081;-82
2024/01/19 00:17:35;;;;;;;5.22;5.03;;;;;;;;;;4965223;28;20038;-82
2024/01/19 00:20:01;;;;;;;5.32;5.13;;;;;;;;;;4962413;28;20030;-81
2024/01/19 00:22:26;;;;;;;5.10;4.90;;;;;;;;;;4960173;28;20046;-82
2024/01/19 00:24:52;;;;;;;5.00;4.80;;;;;;;;;;4980943;28;20034;-82
2024/01/19 00:27:17;;;;;;;5.55;5.35;;;;;;;;;;4964237;28;20041;-82
2024/01/19 00:29:43;;;;;;;5.22;5.03;;;;;;;;;;4945366;28;20417;-81
2024/01/19 00:32:09;;;;;;;5.50;5.30;;;;;;;;;;4963238;28;20060;-81
2024/01/19 00:34:34;;;;;;;5.05;4.85;;;;;;;;;;4979299;28;20038;-81
2024/01/19 00:37:00;;;;;;;5.30;5.10;;;;;;;;;;4979447;28;20042;-82
2024/01/19 00:39:25;;;;;;;5.43;5.22;;;;;;;;;;4976603;28;20048;-81
2024/01/19 00:41:51;;;;;;;5.40;5.20;;;;;;;;;;4979711;28;20046;-82
2024/01/19 00:44:16;;;;;;;5.65;5.45;;;;;;;;;;4982663;28;20051;-82
2024/01/19 00:46:42;;;;;;;5.10;4.90;;;;;;;;;;4979715;28;20043;-82
2024/01/19 00:49:07;;;;;;;5.35;5.15;;;;;;;;;;4976092;28;20133;-82
2024/01/19 00:51:33;;;;;;;5.43;5.22;;;;;;;;;;4979755;28;20149;-81
2024/01/19 00:53:58;;;;;;;5.20;5.00;;;;;;;;;;4963489;28;20156;-82
2024/01/19 00:56:24;;;;;;;5.10;4.90;;;;;;;;;;4962049;28;20046;-82
2024/01/19 00:58:49;;;;;;;5.18;4.97;;;;;;;;;;4977596;28;20034;-81
2024/01/19 01:01:15;;;;;;;5.20;5.00;;;;;;;;;;4984048;28;20056;-81
2024/01/19 01:03:41;;;;;;;5.30;5.10;;;;;;;;;;4983530;28;20571;-81
2024/01/19 01:06:06;;;;;;;5.05;4.85;;;;;;;;;;4961950;28;20105;-81
2024/01/19 01:08:35;;;;;;;5.20;5.00;;;;;;;;;;5008523;28;20133;-81
2024/01/19 01:11:02;;;;;;;5.40;5.20;;;;;;;;;;4978897;28;20492;-81
2024/01/19 01:13:28;;;;;;;5.40;5.20;;;;;;;;;;4977093;28;20713;-81
2024/01/19 01:15:54;;;;;;;5.28;5.07;;;;;;;;;;4989391;28;20041;-81
2024/01/19 01:18:20;;;;;;;5.22;5.03;;;;;;;;;;4978865;28;20092;-81
2024/01/19 01:20:45;;;;;;;5.30;5.10;;;;;;;;;;4962719;28;20863;-80
2024/01/19 01:23:11;;;;;;;5.00;4.80;;;;;;;;;;4981068;28;20117;-81
2024/01/19 01:25:37;;;;;;;5.10;4.90;;;;;;;;;;4980276;28;20099;-81
2024/01/19 01:28:02;;;;;;;5.00;4.80;;;;;;;;;;4975554;28;20048;-81
2024/01/19 01:30:28;;;;;;;5.18;4.97;;;;;;;;;;4973784;28;20100;-81
2024/01/19 01:32:54;;;;;;;4.93;4.72;;;;;;;;;;4972269;28;20062;-81
2024/01/19 01:35:19;;;;;;;5.07;4.88;;;;;;;;;;4962751;28;20125;-81
2024/01/19 01:37:45;;;;;;;4.70;4.50;;;;;;;;;;4978643;28;20042;-81
2024/01/19 01:40:11;;;;;;;4.88;4.68;;;;;;;;;;4977796;28;20816;-81
2024/01/19 01:42:37;;;;;;;4.90;4.70;;;;;;;;;;4980041;28;20049;-80
2024/01/19 01:45:04;;;;;;;4.85;4.65;;;;;;;;;;4978714;28;20042;-81
2024/01/19 01:47:30;;;;;;;4.78;4.57;;;;;;;;;;4962275;28;20042;-81
2024/01/19 01:49:56;;;;;;;4.80;4.60;;;;;;;;;;4978192;28;20489;-81
2024/01/19 01:52:22;;;;;;;4.80;4.60;;;;;;;;;;4960031;28;20552;-81
2024/01/19 01:54:47;;;;;;;4.70;4.50;;;;;;;;;;4961362;28;20595;-81
2024/01/19 01:57:15;;;;;;;6.20;5.90;;;;;;;;;;4982025;28;20037;-81
2024/01/19 01:59:41;;;;;;;4.72;4.53;;;;;;;;;;4988045;28;20034;-80
2024/01/19 02:02:07;;;;;;;4.65;4.45;;;;;;;;;;4966317;28;20049;-81
2024/01/19 02:04:34;;;;;;;4.95;4.75;;;;;;;;;;4981142;28;20043;-81
2024/01/19 02:07:00;;;;;;;4.90;4.70;;;;;;;;;;4965837;28;20045;-81
2024/01/19 02:09:26;;;;;;;5.30;5.10;;;;;;;;;;4985703;28;20046;-80
2024/01/19 02:11:52;;;;;;;5.20;5.00;;;;;;;;;;4981984;28;20038;-81
2024/01/19 02:14:18;;;;;;;4.90;4.70;;;;;;;;;;4951952;28;20706;-80
2024/01/19 02:16:44;;;;;;;4.80;4.60;;;;;;;;;;4965488;28;20054;-81
2024/01/19 02:19:10;;;;;;;4.90;4.70;;;;;;;;;;4954107;28;20124;-81
2024/01/19 02:21:35;;;;;;;4.80;4.60;;;;;;;;;;4984276;28;20686;-82
2024/01/19 02:24:03;;;;;;;4.70;4.50;;;;;;;;;;4963597;28;20850;-80
2024/01/19 02:26:30;;;;;;;4.50;4.30;;;;;;;;;;4965191;28;20061;-79
2024/01/19 02:28:56;;;;;;;4.70;4.50;;;;;;;;;;4983357;28;20046;-82
2024/01/19 02:31:22;;;;;;;4.55;4.35;;;;;;;;;;4983715;28;20042;-81
2024/01/19 02:33:47;;;;;;;4.50;4.30;;;;;;;;;;4967646;28;20518;-81
2024/01/19 02:36:13;;;;;;;5.00;4.80;;;;;;;;;;4964351;28;20141;-81
2024/01/19 02:38:38;;;;;;;4.78;4.57;;;;;;;;;;4980713;28;20030;-81
2024/01/19 02:41:04;;;;;;;4.85;4.65;;;;;;;;;;4982344;28;20137;-81
2024/01/19 02:43:29;;;;;;;4.68;4.47;;;;;;;;;;4978412;28;20049;-81
2024/01/19 02:45:55;;;;;;;4.80;4.60;;;;;;;;;;4984454;28;20675;-82
2024/01/19 02:48:21;;;;;;;4.53;4.32;;;;;;;;;;4971791;28;20834;-82
2024/01/19 02:50:46;;;;;;;4.75;4.55;;;;;;;;;;4981581;28;20038;-81
2024/01/19 02:53:12;;;;;;;4.68;4.47;;;;;;;;;;4981335;28;20633;-81
2024/01/19 02:55:37;;;;;;;4.90;4.70;;;;;;;;;;5011555;28;20151;-81
2024/01/19 02:58:03;;;;;;;4.70;4.50;;;;;;;;;;4966053;28;20038;-81
2024/01/19 03:00:29;;;;;;;4.50;4.30;;;;;;;;;;4970273;28;20140;-82
2024/01/19 03:02:54;;;;;;;4.50;4.30;;;;;;;;;;4962739;28;20056;-81
2024/01/19 03:05:20;;;;;;;4.72;4.53;;;;;;;;;;4966490;28;20038;-82
2024/01/19 03:07:46;;;;;;;4.72;4.53;;;;;;;;;;4983708;28;20046;-81
2024/01/19 03:10:11;;;;;;;4.80;4.60;;;;;;;;;;4980459;28;20097;-82
2024/01/19 03:12:37;;;;;;;4.85;4.65;;;;;;;;;;4980200;28;20033;-82
2024/01/19 03:15:04;;;;;;;4.72;4.53;;;;;;;;;;4978968;28;20057;-81
2024/01/19 03:17:29;;;;;;;4.57;4.38;;;;;;;;;;4950656;28;20481;-81
2024/01/19 03:19:55;;;;;;;4.50;4.30;;;;;;;;;;4987263;28;20117;-81
2024/01/19 03:22:21;;;;;;;4.82;4.63;;;;;;;;;;4981017;28;20888;-82
2024/01/19 03:24:46;;;;;;;4.80;4.60;;;;;;;;;;4958188;28;20057;-81
2024/01/19 03:27:12;;;;;;;4.75;4.55;;;;;;;;;;4964024;28;20042;-81
2024/01/19 03:29:38;;;;;;;4.60;4.40;;;;;;;;;;4978590;28;20176;-81
2024/01/19 03:32:03;;;;;;;4.70;4.50;;;;;;;;;;4981021;28;20534;-81
2024/01/19 03:34:29;;;;;;;4.70;4.50;;;;;;;;;;4963117;28;20053;-82
2024/01/19 03:36:55;;;;;;;4.60;4.40;;;;;;;;;;4978773;28;20050;-81
2024/01/19 03:39:23;;;;;;;4.50;4.30;;;;;;;;;;4982327;28;20145;-80
2024/01/19 03:41:48;;;;;;;4.75;4.55;;;;;;;;;;4962881;28;20141;-82
2024/01/19 03:44:14;;;;;;;4.43;4.22;;;;;;;;;;4979419;28;20679;-81
2024/01/19 03:46:39;;;;;;;4.50;4.30;;;;;;;;;;4976970;28;20034;-81
2024/01/19 03:49:07;;;;;;;4.47;4.28;;;;;;;;;;4978251;28;20513;-81
2024/01/19 03:51:33;;;;;;;4.70;4.50;;;;;;;;;;4979843;28;20049;-81
2024/01/19 03:53:59;;;;;;;4.78;4.57;;;;;;;;;;4963593;28;20049;-82
2024/01/19 03:56:25;;;;;;;5.00;4.80;;;;;;;;;;4962760;28;20494;-82
2024/01/19 03:58:50;;;;;;;4.80;4.60;;;;;;;;;;4977507;28;20038;-82
2024/01/19 04:01:16;;;;;;;4.80;4.60;;;;;;;;;;4978010;28;20512;-82
2024/01/19 04:03:44;;;;;;;4.93;4.72;;;;;;;;;;4979769;28;20060;-82
2024/01/19 04:06:10;;;;;;;5.05;4.85;;;;;;;;;;4978595;28;20042;-82
2024/01/19 04:08:35;;;;;;;4.90;4.70;;;;;;;;;;4965276;28;20064;-81
2024/01/19 04:11:01;;;;;;;4.70;4.50;;;;;;;;;;4982235;28;20854;-81
2024/01/19 04:13:27;;;;;;;4.93;4.72;;;;;;;;;;4966686;28;20041;-83
2024/01/19 04:15:52;;;;;;;4.85;4.65;;;;;;;;;;4994313;28;20057;-82
2024/01/19 04:18:18;;;;;;;5.05;4.85;;;;;;;;;;5000073;28;20057;-82
2024/01/19 04:20:44;;;;;;;5.30;5.10;;;;;;;;;;5001832;28;20098;-81
2024/01/19 04:23:10;;;;;;;4.80;4.60;;;;;;;;;;4991377;28;20290;-82
2024/01/19 04:25:35;;;;;;;5.00;4.80;;;;;;;;;;4996918;28;20022;-82
2024/01/19 04:28:01;;;;;;;5.47;5.28;;;;;;;;;;5002767;28;20041;-82
2024/01/19 04:30:26;;;;;;;6.65;6.38;;;;;;;;;;5004928;28;20072;-81
2024/01/19 04:32:52;;;;;;;5.30;5.10;;;;;;;;;;4986246;28;20050;-81
2024/01/19 04:35:17;;;;;;;4.90;4.70;;;;;;;;;;5002095;28;20018;-82
2024/01/19 04:37:43;;;;;;;5.13;4.93;;;;;;;;;;4985234;28;20030;-81
2024/01/19 04:40:09;;;;;;;5.00;4.80;;;;;;;;;;5002359;28;20034;-81
2024/01/19 04:42:35;;;;;;;4.80;4.60;;;;;;;;;;4968589;28;20160;-81
2024/01/19 04:45:00;;;;;;;4.75;4.55;;;;;;;;;;5004285;28;20030;-81
2024/01/19 04:47:26;;;;;;;4.95;4.75;;;;;;;;;;4968977;28;20030;-81
2024/01/19 04:49:51;;;;;;;5.00;4.80;;;;;;;;;;5002339;28;20054;-81
2024/01/19 04:52:17;;;;;;;5.20;5.00;;;;;;;;;;5003276;28;20122;-81
2024/01/19 04:54:43;;;;;;;4.68;4.47;;;;;;;;;;5002601;28;20119;-81
2024/01/19 04:57:09;;;;;;;5.30;5.10;;;;;;;;;;5017526;28;20031;-81
2024/01/19 04:59:35;;;;;;;5.05;4.85;;;;;;;;;;5002965;28;20033;-81
2024/01/19 05:02:00;;;;;;;5.15;4.95;;;;;;;;;;5035904;28;20033;-81
2024/01/19 05:04:26;;;;;;;5.30;5.10;;;;;;;;;;5003707;28;20056;-81
2024/01/19 05:06:52;;;;;;;5.00;4.80;;;;;;;;;;4986200;28;20026;-81
2024/01/19 05:09:17;;;;;;;4.82;4.63;;;;;;;;;;5005861;28;20026;-81
2024/01/19 05:11:43;;;;;;;4.95;4.75;;;;;;;;;;5003318;28;20030;-80
2024/01/19 05:14:09;;;;;;;5.25;5.05;;;;;;;;;;4988431;28;20022;-81
2024/01/19 05:16:34;;;;;;;5.10;4.90;;;;;;;;;;5000555;28;20050;-81
2024/01/19 05:19:00;;;;;;;4.88;4.68;;;;;;;;;;4987679;28;20098;-81
2024/01/19 05:21:25;;;;;;;5.30;5.10;;;;;;;;;;4987156;28;20132;-81
2024/01/19 05:23:51;;;;;;;5.20;5.00;;;;;;;;;;4999715;28;20073;-81
2024/01/19 05:26:16;;;;;;;5.20;5.00;;;;;;;;;;4998280;28;20066;-81
2024/01/19 05:28:42;;;;;;;5.20;5.00;;;;;;;;;;4987752;28;20252;-81
2024/01/19 05:31:08;;;;;;;5.22;5.03;;;;;;;;;;5006801;28;20030;-81
2024/01/19 05:33:34;;;;;;;5.20;5.00;;;;;;;;;;5001352;28;20029;-81
2024/01/19 05:36:01;;;;;;;5.20;5.00;;;;;;;;;;4989982;28;20049;-81
2024/01/19 05:38:26;;;;;;;5.30;5.10;;;;;;;;;;4985031;28;20046;-82
2024/01/19 05:40:52;;;;;;;5.38;5.18;;;;;;;;;;4984383;28;20647;-81
2024/01/19 05:43:17;;;;;;;5.30;5.10;;;;;;;;;;4984756;28;20463;-80
2024/01/19 05:45:43;;;;;;;5.50;5.30;;;;;;;;;;4981487;28;20572;-81
2024/01/19 05:48:08;;;;;;;5.30;5.10;;;;;;;;;;4967654;28;20030;-81
2024/01/19 05:50:34;;;;;;;7.88;7.47;;;;;;;;;;4982129;28;20524;-81
2024/01/19 05:53:00;;;;;;;5.50;5.30;;;;;;;;;;4984047;28;20045;-81
2024/01/19 05:55:25;;;;;;;5.18;4.97;;;;;;;;;;4962522;28;20050;-81
2024/01/19 05:57:51;;;;;;;5.13;4.93;;;;;;;;;;4997350;28;20042;-81
2024/01/19 06:00:16;;;;;;;5.10;4.90;;;;;;;;;;4966782;28;20046;-81
2024/01/19 06:02:42;;;;;;;5.50;5.30;;;;;;;;;;4984761;28;20116;-81
2024/01/19 06:05:08;;;;;;;5.50;5.30;;;;;;;;;;4983277;28;20054;-81
2024/01/19 06:07:34;;;;;;;5.50;5.30;;;;;;;;;;5012185;28;20030;-82
2024/01/19 06:09:59;;;;;;;5.45;5.25;;;;;;;;;;4986522;28;20034;-82
2024/01/19 06:12:26;;;;;;;5.40;5.20;;;;;;;;;;4982092;28;20086;-82
2024/01/19 06:14:53;;;;;;;5.30;5.10;;;;;;;;;;4949847;28;20285;-82
2024/01/19 06:17:18;;;;;;;5.53;5.32;;;;;;;;;;4981484;28;20039;-81
2024/01/19 06:19:44;;;;;;;5.45;5.25;;;;;;;;;;4983896;28;20554;-82
2024/01/19 06:22:10;;;;;;;5.70;5.50;;;;;;;;;;4949890;28;20064;-81
2024/01/19 06:24:36;;;;;;;5.40;5.20;;;;;;;;;;4982377;28;20034;-80
2024/01/19 06:27:03;;;;;;;5.60;5.40;;;;;;;;;;4983907;28;20741;-82
2024/01/19 06:29:29;;;;;;;5.50;5.30;;;;;;;;;;4984129;28;20077;-82
2024/01/19 06:31:54;;;;;;;5.22;5.03;;;;;;;;;;4984031;28;20073;-81
2024/01/19 06:34:20;;;;;;;5.85;5.60;;;;;;;;;;4987695;28;20069;-82
2024/01/19 06:36:46;;;;;;;5.25;5.05;;;;;;;;;;4983133;28;20038;-81
2024/01/19 06:39:15;;;;;;;5.57;5.38;;;;;;;;;;4966480;28;20034;-81
2024/01/19 06:41:44;;;;;;;5.30;5.10;;;;;;;;;;4965664;28;20072;-81
2024/01/19 06:44:11;;;;;;;5.60;5.40;;;;;;;;;;4984802;28;20038;-81
2024/01/19 06:46:37;;;;;;;5.80;5.50;;;;;;;;;;4984415;28;20982;-81
2024/01/19 06:49:02;;;;;;;5.60;5.40;;;;;;;;;;4967989;28;20080;-81
2024/01/19 06:51:28;;;;;;;5.60;5.40;;;;;;;;;;4980211;28;20088;-82
2024/01/19 06:53:55;;;;;;;5.40;5.20;;;;;;;;;;4996899;28;20073;-82
2024/01/19 06:56:21;;;;;;;5.40;5.20;;;;;;;;;;4992165;28;20046;-82
2024/01/19 06:58:46;;;;;;;5.25;5.05;;;;;;;;;;4964807;28;20033;-82
2024/01/19 07:01:12;;;;;;;5.28;5.07;;;;;;;;;;5000351;28;20042;-82
2024/01/19 07:03:38;;;;;;;5.38;5.18;;;;;;;;;;4994046;28;20038;-82
2024/01/19 07:06:03;;;;;;;5.38;5.18;;;;;;;;;;4982060;28;20139;-83
2024/01/19 07:08:29;;;;;;;5.20;5.00;;;;;;;;;;4972236;28;20108;-81
2024/01/19 07:10:54;;;;;;;5.03;4.82;;;;;;;;;;4966456;28;20046;-81
2024/01/19 07:13:20;;;;;;;5.32;5.13;;;;;;;;;;5013385;28;20045;-81
2024/01/19 07:15:46;;;;;;;5.20;5.00;;;;;;;;;;4985392;28;20274;-82
2024/01/19 07:18:11;;;;;;;5.32;5.13;;;;;;;;;;4984938;28;20038;-82
2024/01/19 07:20:37;;;;;;;5.25;5.05;;;;;;;;;;4988893;28;20066;-82
2024/01/19 07:23:03;;;;;;;5.80;5.50;;;;;;;;;;4994945;28;20852;-83
2024/01/19 07:25:29;;;;;;;5.47;5.28;;;;;;;;;;4996740;28;20042;-82
2024/01/19 07:27:55;;;;;;;7.63;7.22;;;;;;;;;;4944842;28;20045;-82
2024/01/19 07:30:20;;;;;;;5.50;5.30;;;;;;;;;;4950504;28;20054;-82
2024/01/19 07:32:46;;;;;;;21.00;12.05;;;;;;;;;;5004278;28;20563;-82
2024/01/19 07:35:12;;;;;;;6.68;6.38;;;;;;;;;;4974764;28;20034;-82
2024/01/19 07:37:37;;;;;;;5.40;5.20;;;;;;;;;;4987712;28;20126;-82
2024/01/19 07:40:03;;;;;;;5.50;5.30;;;;;;;;;;4975287;28;20048;-82
2024/01/19 07:42:29;;;;;;;5.55;5.35;;;;;;;;;;4973874;28;20469;-82
2024/01/19 07:44:55;;;;;;;5.10;4.90;;;;;;;;;;4960360;28;20116;-81
2024/01/19 07:47:20;;;;;;;5.32;5.13;;;;;;;;;;4946551;28;20050;-83
2024/01/19 07:49:46;;;;;;;5.20;5.00;;;;;;;;;;4943928;28;20045;-83
2024/01/19 07:52:11;;;;;;;5.30;5.10;;;;;;;;;;4956326;28;20042;-83
2024/01/19 07:54:37;;;;;;;5.28;5.07;;;;;;;;;;4992796;28;20101;-83
2024/01/19 07:57:03;;;;;;;5.30;5.10;;;;;;;;;;4964034;28;20042;-83
2024/01/19 07:59:28;;;;;;;5.40;5.20;;;;;;;;;;4978212;28;20038;-81
2024/01/19 08:01:54;;;;;;;5.43;5.22;;;;;;;;;;4956384;28;20054;-83
2024/01/19 08:04:20;;;;;;;5.20;5.00;;;;;;;;;;4961157;28;20111;-81
2024/01/19 08:06:46;;;;;;;6.22;5.95;;;;;;;;;;4972987;28;20042;-82
2024/01/19 08:09:13;;;;;;;5.35;5.15;;;;;;;;;;4991809;28;20034;-83
2024/01/19 08:11:39;;;;;;;5.40;5.20;;;;;;;;;;4977931;28;20066;-82
2024/01/19 08:14:05;;;;;;;5.20;5.00;;;;;;;;;;4979093;28;20053;-82
2024/01/19 08:16:30;;;;;;;5.30;5.10;;;;;;;;;;4966761;28;20755;-82
2024/01/19 08:18:56;;;;;;;5.40;5.20;;;;;;;;;;4977652;28;20038;-82
2024/01/19 08:21:23;;;;;;;5.82;5.53;;;;;;;;;;4965974;28;20817;-83
2024/01/19 08:23:49;;;;;;;5.40;5.20;;;;;;;;;;4982139;28;20787;-82
2024/01/19 08:26:15;;;;;;;5.60;5.40;;;;;;;;;;4965762;28;20088;-82
2024/01/19 08:28:45;;;;;;;5.60;5.40;;;;;;;;;;4961032;28;20761;-82
2024/01/19 08:31:12;;;;;;;5.97;5.68;;;;;;;;;;4976644;28;20050;-82
2024/01/19 08:33:37;;;;;;;5.88;5.57;;;;;;;;;;4946876;28;20053;-83
2024/01/19 08:36:03;;;;;;;6.00;5.70;;;;;;;;;;4961598;28;20133;-82
2024/01/19 08:38:29;;;;;;;8.80;8.35;;;;;;;;;;4960464;28;20053;-83
2024/01/19 08:40:54;;;;;;;6.63;6.32;;;;;;;;;;4963619;28;20116;-84
2024/01/19 08:43:20;;;;;;;6.38;6.07;;;;;;;;;;4980608;28;20185;-84
2024/01/19 08:45:46;;;;;;;6.75;6.45;;;;;;;;;;4945306;28;20100;-84
2024/01/19 08:48:12;;;;;;;6.35;6.05;;;;;;;;;;4965112;28;20045;-83
2024/01/19 08:50:38;;;;;;;6.60;6.30;;;;;;;;;;4965200;28;20413;-83
2024/01/19 08:53:04;;;;;;;6.85;6.55;;;;;;;;;;4963544;28;20116;-83
2024/01/19 08:55:29;;;;;;;7.00;6.70;;;;;;;;;;4980975;28;20473;-83
2024/01/19 08:57:55;;;;;;;6.78;6.47;;;;;;;;;;4963567;28;20069;-83
2024/01/19 09:00:21;;;;;;;6.70;6.40;;;;;;;;;;4980309;28;20160;-83
2024/01/19 09:02:48;;;;;;;6.47;6.18;;;;;;;;;;4964727;28;20518;-82
2024/01/19 09:05:19;;;;;;;7.90;7.50;;;;;;;;;;4980144;28;20113;-83
2024/01/19 09:07:45;;;;;;;8.60;8.20;;;;;;;;;;4965829;28;20731;-83
2024/01/19 09:10:10;;;;;;;7.68;7.28;;;;;;;;;;4966302;28;20039;-83
2024/01/19 09:12:36;;;;;;;7.25;6.95;;;;;;;;;;4964809;28;20125;-82
2024/01/19 09:15:03;;;;;;;6.50;6.20;;;;;;;;;;4965639;28;20097;-83
2024/01/19 09:17:29;;;;;;;6.60;6.30;;;;;;;;;;4976634;28;20109;-83
2024/01/19 09:19:55;;;;;;;7.03;6.72;;;;;;;;;;4961282;28;20030;-83
2024/01/19 09:22:20;;;;;;;6.72;6.43;;;;;;;;;;4971586;28;20081;-83
2024/01/19 09:24:46;;;;;;;7.43;7.05;;;;;;;;;;4947287;28;20052;-83
2024/01/19 09:27:11;;;;;;;6.93;6.63;;;;;;;;;;4986212;28;20568;-83
2024/01/19 09:29:37;;;;;;;7.20;6.90;;;;;;;;;;4960241;28;20039;-83
2024/01/19 09:32:03;;;;;;;6.28;5.97;;;;;;;;;;4980420;28;20042;-82
2024/01/19 09:34:28;;;;;;;6.70;6.40;;;;;;;;;;4980647;28;20042;-83
2024/01/19 09:36:54;;;;;;;5.88;5.57;;;;;;;;;;4981515;28;20073;-82
2024/01/19 09:39:21;;;;;;;6.70;6.40;;;;;;;;;;4940942;28;20069;-83
2024/01/19 09:41:49;;;;;;;6.38;6.07;;;;;;;;;;4960126;28;20038;-83
2024/01/19 09:44:18;;;;;;;6.60;6.30;;;;;;;;;;4980419;28;20038;-82
2024/01/19 09:47:15;;;;;;;6.25;5.95;;;;;;;;;;4961039;28;20049;-82
2024/01/19 09:50:05;;;;;;;8.48;8.07;;;;;;;;;;4999540;28;20034;-83
2024/01/19 09:52:45;;;;;;;7.68;7.28;;;;;;;;;;4962743;28;20035;-83
2024/01/19 09:55:12;;;;;;;5.97;5.68;;;;;;;;;;4964317;28;20042;-83
2024/01/19 09:57:47;;;;;;;6.40;6.10;;;;;;;;;;4963038;28;20120;-82
2024/01/19 10:00:18;;;;;;;6.18;5.88;;;;;;;;;;4994224;28;20074;-82
2024/01/19 10:02:45;;;;;;;6.47;6.18;;;;;;;;;;4982079;28;20129;-82
2024/01/19 10:05:13;;;;;;;6.00;5.70;;;;;;;;;;4969784;28;20120;-82
2024/01/19 10:07:43;;;;;;;6.05;5.75;;;;;;;;;;4978509;28;20070;-82
2024/01/19 10:10:10;;;;;;;6.13;5.82;;;;;;;;;;4981103;28;20041;-82
2024/01/19 10:12:37;;;;;;;6.40;6.10;;;;;;;;;;4964395;28;20775;-82
2024/01/19 10:15:14;;;;;;;7.05;6.75;;;;;;;;;;4977940;28;20061;-82
2024/01/19 10:17:41;;;;;;;6.88;6.57;;;;;;;;;;4950904;28;20133;-82
2024/01/19 10:20:10;;;;;;;6.78;6.47;;;;;;;;;;4982016;28;20065;-82
2024/01/19 10:22:36;;;;;;;6.40;6.10;;;;;;;;;;4984078;28;20088;-82
2024/01/19 10:25:10;;;;;;;6.50;6.20;;;;;;;;;;4966570;28;20034;-82
2024/01/19 10:27:51;;;;;;;6.00;5.70;;;;;;;;;;4982445;28;20084;-83
2024/01/19 10:30:22;;;;;;;6.38;6.07;;;;;;;;;;4966881;28;20140;-82
2024/01/19 10:32:49;;;;;;;6.60;6.30;;;;;;;;;;5014917;28;20125;-83
2024/01/19 10:35:17;;;;;;;6.57;6.28;;;;;;;;;;4982228;28;20049;-83
2024/01/19 10:37:42;;;;;;;7.47;7.07;;;;;;;;;;4981875;28;20073;-83
2024/01/19 10:40:14;;;;;;;6.70;6.40;;;;;;;;;;4974084;28;20034;-83
2024/01/19 10:42:41;;;;;;;7.00;6.70;;;;;;;;;;5012910;28;20038;-82
2024/01/19 10:45:21;;;;;;;6.80;6.50;;;;;;;;;;4982352;28;20093;-83
2024/01/19 10:47:49;;;;;;;6.38;6.07;;;;;;;;;;5007045;28;20035;-82
2024/01/19 10:50:16;;;;;;;6.90;6.60;;;;;;;;;;4981400;28;20109;-82
2024/01/19 10:52:51;;;;;;;6.85;6.55;;;;;;;;;;4982310;28;20511;-83
2024/01/19 10:55:21;;;;;;;6.70;6.40;;;;;;;;;;4960003;28;20141;-83
2024/01/19 10:58:02;;;;;;;7.00;6.70;;;;;;;;;;4981016;28;20404;-82
2024/01/19 11:00:28;;;;;;;6.88;6.57;;;;;;;;;;4965295;28;20089;-83
2024/01/19 11:02:59;;;;;;;6.95;6.65;;;;;;;;;;4979600;28;20089;-83
2024/01/19 11:05:26;;;;;;;7.28;6.95;;;;;;;;;;4984925;28;20034;-83
2024/01/19 11:07:53;;;;;;;7.10;6.80;;;;;;;;;;4973788;28;20031;-83
2024/01/19 11:10:23;;;;;;;7.28;6.95;;;;;;;;;;4995509;28;20064;-83
2024/01/19 11:12:55;;;;;;;;;;;;;;;;;;4947179;28;20042;-83
2024/01/19 11:15:30;;;;;;;7.28;6.90;;;;;;;;;;5012037;28;20015;-83
2024/01/19 11:17:58;;;;;;;8.52;8.13;;;;;;;;;;4981943;28;20146;-83
2024/01/19 11:20:24;;;;;;;6.75;6.45;;;;;;;;;;4981763;28;20658;-83
2024/01/19 11:22:53;;;;;;;6.50;6.20;;;;;;;;;;4980383;28;20060;-83
2024/01/19 11:25:30;;;;;;;6.03;5.72;;;;;;;;;;4963990;28;20133;-83
2024/01/19 11:28:14;;;;;;;6.22;5.93;;;;;;;;;;4981071;28;20041;-82
2024/01/19 11:31:02;;;;;;;6.50;6.20;;;;;;;;;;4982114;28;20034;-83
2024/01/19 11:33:34;;;;;;;6.30;6.00;;;;;;;;;;4979536;28;20034;-83
2024/01/19 11:35:59;;;;;;;7.00;6.70;;;;;;;;;;4965189;28;20057;-82
2024/01/19 11:38:48;;;;;;;6.88;6.57;;;;;;;;;;4982906;28;20520;-83
2024/01/19 11:41:32;;;;;;;6.90;6.60;;;;;;;;;;4973308;28;20054;-83
2024/01/19 11:43:57;;;;;;;6.50;6.20;;;;;;;;;;4984712;28;20168;-83
2024/01/19 11:46:46;;;;;;;6.80;6.50;;;;;;;;;;4973675;28;20374;-82
2024/01/19 11:49:29;;;;;;;7.07;6.78;;;;;;;;;;4979518;28;20042;-83
2024/01/19 11:52:18;;;;;;;6.75;6.45;;;;;;;;;;4979945;28;20049;-82
2024/01/19 11:54:44;;;;;;;6.75;6.45;;;;;;;;;;4971082;28;20588;-83
2024/01/19 11:57:16;;;;;;;6.65;6.35;;;;;;;;;;4951164;28;20145;-83
2024/01/19 11:59:46;;;;;;;6.72;6.43;;;;;;;;;;4980842;28;20065;-82
2024/01/19 12:02:31;;;;;;;13.20;12.50;;;;;;;;;;4978832;28;20041;-82
2024/01/19 12:05:03;;;;;;;6.82;6.53;;;;;;;;;;4981346;28;20543;-83
2024/01/19 12:07:29;;;;;;;6.50;6.20;;;;;;;;;;4992404;28;20035;-82
2024/01/19 12:10:12;;;;;;;6.60;6.30;;;;;;;;;;4992364;28;20767;-83
2024/01/19 12:12:38;;;;;;;6.63;6.32;;;;;;;;;;4961572;28;20046;-82
2024/01/19 12:15:09;;;;;;;6.75;6.45;;;;;;;;;;4962857;28;20165;-82
2024/01/19 12:17:42;;;;;;;6.63;6.32;;;;;;;;;;4978134;28;20061;-83
2024/01/19 12:20:09;;;;;;;6.93;6.63;;;;;;;;;;4980875;28;20030;-83
2024/01/19 12:22:36;;;;;;;7.50;7.10;;;;;;;;;;5008276;28;20078;-83
2024/01/19 12:25:14;;;;;;;8.00;7.60;;;;;;;;;;4979495;28;20455;-83
2024/01/19 12:27:40;;;;;;;7.70;7.30;;;;;;;;;;4975787;28;20034;-82
2024/01/19 12:30:16;;;;;;;8.20;7.80;;;;;;;;;;4977359;28;20049;-82
2024/01/19 12:32:43;;;;;;;8.20;7.80;;;;;;;;;;4980885;28;20117;-83
2024/01/19 12:35:09;;;;;;;7.25;6.93;;;;;;;;;;4972675;28;20058;-82
2024/01/19 12:37:34;;;;;;;8.10;7.70;;;;;;;;;;4981795;28;20655;-82
2024/01/19 12:40:20;;;;;;;7.20;6.90;;;;;;;;;;4948195;28;20044;-82
2024/01/19 12:42:45;;;;;;;8.10;7.70;;;;;;;;;;4983075;28;20038;-82
2024/01/19 12:45:12;;;;;;;8.00;7.60;;;;;;;;;;4962591;28;20046;-82
2024/01/19 12:47:46;;;;;;;7.40;7.00;;;;;;;;;;5010653;28;20080;-83
2024/01/19 12:50:12;;;;;;;6.90;6.60;;;;;;;;;;4965113;28;20656;-82
2024/01/19 12:52:38;;;;;;;6.95;6.65;;;;;;;;;;4977946;28;20034;-82
2024/01/19 12:55:04;;;;;;;6.35;6.05;;;;;;;;;;4962760;28;20046;-82
2024/01/19 12:57:30;;;;;;;6.70;6.40;;;;;;;;;;4980976;28;20133;-83
2024/01/19 13:00:14;;;;;;;7.38;6.97;;;;;;;;;;4980031;28;20117;-83
2024/01/19 13:02:40;;;;;;;7.07;6.78;;;;;;;;;;4981260;28;20037;-82
2024/01/19 13:05:17;;;;;;;7.50;7.10;;;;;;;;;;4947482;28;20052;-82
2024/01/19 13:07:43;;;;;;;7.00;6.70;;;;;;;;;;4963262;28;20046;-83
2024/01/19 13:10:09;;;;;;;7.13;6.82;;;;;;;;;;4974798;28;20093;-83
2024/01/19 13:12:35;;;;;;;6.65;6.35;;;;;;;;;;4963968;28;20068;-82
2024/01/19 13:15:11;;;;;;;6.95;6.65;;;;;;;;;;5000803;28;20044;-83
2024/01/19 13:17:42;;;;;;;7.10;6.80;;;;;;;;;;4992747;28;20038;-83
2024/01/19 13:20:23;;;;;;;6.45;6.15;;;;;;;;;;4978520;28;20041;-84
2024/01/19 13:22:50;;;;;;;6.10;5.80;;;;;;;;;;4965296;28;20054;-83
2024/01/19 13:25:15;;;;;;;6.63;6.32;;;;;;;;;;4961176;28;20038;-83
2024/01/19 13:27:41;;;;;;;7.10;6.70;;;;;;;;;;4964657;28;20038;-83
2024/01/19 13:30:07;;;;;;;6.55;6.25;;;;;;;;;;4957514;28;20038;-82
2024/01/19 13:32:34;;;;;;;6.75;6.45;;;;;;;;;;4976974;28;20046;-83
2024/01/19 13:35:00;;;;;;;6.80;6.50;;;;;;;;;;4977550;28;20042;-83
2024/01/19 13:37:25;;;;;;;6.45;6.15;;;;;;;;;;4981395;28;20044;-83
2024/01/19 13:39:54;;;;;;;5.85;5.55;;;;;;;;;;4977838;28;20031;-82
2024/01/19 13:42:21;;;;;;;6.05;5.75;;;;;;;;;;4978698;28;20764;-82
2024/01/19 13:44:46;;;;;;;6.78;6.47;;;;;;;;;;4975195;28;20058;-82
2024/01/19 13:47:12;;;;;;;6.75;6.45;;;;;;;;;;4974373;28;20038;-82
2024/01/19 13:49:37;;;;;;;6.60;6.30;;;;;;;;;;4975903;28;20274;-82
2024/01/19 13:52:03;;;;;;;6.60;6.30;;;;;;;;;;4982501;28;20046;-81
2024/01/19 13:54:29;;;;;;;6.50;6.20;;;;;;;;;;5001246;28;20046;-82
2024/01/19 13:56:54;;;;;;;6.47;6.18;;;;;;;;;;4981614;28;20061;-82
2024/01/19 13:59:20;;;;;;;6.43;6.13;;;;;;;;;;4980863;28;20030;-82
2024/01/19 14:01:47;;;;;;;6.65;6.35;;;;;;;;;;4983776;28;20045;-82
2024/01/19 14:04:13;;;;;;;6.50;6.20;;;;;;;;;;4951506;28;20108;-83
2024/01/19 14:06:41;;;;;;;6.75;6.45;;;;;;;;;;4982443;28;20042;-83
2024/01/19 14:09:06;;;;;;;6.68;6.38;;;;;;;;;;4963854;28;20583;-82
2024/01/19 14:11:32;;;;;;;6.70;6.40;;;;;;;;;;4965971;28;20023;-82
2024/01/19 14:13:58;;;;;;;6.53;6.22;;;;;;;;;;4963590;28;20053;-81
2024/01/19 14:16:24;;;;;;;6.68;6.38;;;;;;;;;;4982654;28;20050;-82
2024/01/19 14:18:49;;;;;;;6.30;6.00;;;;;;;;;;4982633;28;20037;-83
2024/01/19 14:21:16;;;;;;;6.45;6.15;;;;;;;;;;4946217;28;20034;-82
2024/01/19 14:23:43;;;;;;;5.97;5.68;;;;;;;;;;4966398;28;20042;-82
2024/01/19 14:26:09;;;;;;;6.32;6.03;;;;;;;;;;4982028;28;20045;-80
2024/01/19 14:28:35;;;;;;;6.38;6.07;;;;;;;;;;4963568;28;20050;-82
2024/01/19 14:31:01;;;;;;;6.40;6.10;;;;;;;;;;4980589;28;20042;-83
2024/01/19 14:33:27;;;;;;;6.43;6.13;;;;;;;;;;4978245;28;20808;-82
2024/01/19 14:35:53;;;;;;;6.80;6.50;;;;;;;;;;4979914;28;20050;-82
2024/01/19 14:38:19;;;;;;;6.80;6.50;;;;;;;;;;4963122;28;20057;-83
2024/01/19 14:40:44;;;;;;;6.70;6.40;;;;;;;;;;4964055;28;20038;-81
2024/01/19 14:43:10;;;;;;;6.15;5.85;;;;;;;;;;4977101;28;20265;-83